Time;durP1;ratioP1;P1;durP2;ratioP2;P2;SDS_P1;SDS_P2;PMS_P1;PMS_P2;Temp;Humidity;BMP_temperature;BMP_pressure;BME280_temperature;BME280_humidity;BME280_pressure;Samples;Min_cycle;Max_cycle;Signal;HPM_P1;HPM_P2
2021/12/31 00:00:26;;;;;;;18.88;8.48;;;;;;;12.78;93.86;101625.03;5112805;28;20506;-65
2021/12/31 00:02:53;;;;;;;20.00;8.20;;;;;;;12.69;93.52;101618.59;5097976;28;20380;-67
2021/12/31 00:05:21;;;;;;;17.85;8.13;;;;;;;12.55;94.55;101616.94;5098331;28;20052;-66
2021/12/31 00:07:48;;;;;;;20.98;8.40;;;;;;;12.50;95.15;101623.38;5097853;28;20040;-66
2021/12/31 00:10:16;;;;;;;17.10;7.85;;;;;;;12.65;94.58;101614.81;5097864;28;20154;-67
2021/12/31 00:12:44;;;;;;;16.92;7.45;;;;;;;12.68;93.93;101616.13;5113572;28;20055;-66
2021/12/31 00:15:13;;;;;;;18.80;8.80;;;;;;;12.52;94.60;101617.56;5098420;28;20063;-66
2021/12/31 00:17:40;;;;;;;19.85;7.70;;;;;;;12.63;94.10;101614.28;5095732;28;20060;-66
2021/12/31 00:20:16;;;;;;;16.02;7.65;;;;;;;12.66;93.85;101610.09;5098291;28;20491;-66
2021/12/31 00:25:20;;;;;;;20.63;8.18;;;;;;;12.54;94.16;101604.22;5096588;28;20147;-66
2021/12/31 00:27:47;;;;;;;18.50;8.32;;;;;;;12.32;94.92;101610.44;5097811;28;20063;-66
2021/12/31 00:30:15;;;;;;;23.77;8.90;;;;;;;12.36;94.86;101600.44;5113043;28;20102;-66
2021/12/31 00:32:43;;;;;;;18.48;8.80;;;;;;;12.42;94.31;101590.91;5097819;28;20048;-66
2021/12/31 00:35:12;;;;;;;20.37;9.23;;;;;;;12.38;94.90;101593.47;5097783;28;20052;-66
2021/12/31 00:37:40;;;;;;;19.67;8.20;;;;;;;12.35;95.29;101593.25;5097400;28;20044;-66
2021/12/31 00:40:13;;;;;;;23.13;10.23;;;;;;;12.36;95.20;101592.16;5097337;28;20059;-65
2021/12/31 00:42:42;;;;;;;19.05;9.40;;;;;;;12.20;95.65;101597.09;5095335;28;20052;-67
2021/12/31 00:45:12;;;;;;;16.65;9.65;;;;;;;12.32;95.39;101610.44;5097066;28;20064;-67
2021/12/31 00:47:39;;;;;;;20.30;8.73;;;;;;;12.29;94.30;101611.06;5097127;28;20060;-66
2021/12/31 00:50:08;;;;;;;19.27;9.05;;;;;;;12.22;94.92;101605.09;5097330;28;20060;-67
2021/12/31 00:52:35;;;;;;;21.05;8.93;;;;;;;12.03;95.88;101601.56;5096540;28;20135;-66
2021/12/31 00:55:04;;;;;;;23.13;9.73;;;;;;;12.00;96.43;101608.50;5097185;28;20067;-66
2021/12/31 00:57:31;;;;;;;28.60;9.55;;;;;;;11.90;96.94;101608.69;5097074;28;20058;-67
2021/12/31 00:59:59;;;;;;;23.23;9.57;;;;;;;12.04;96.89;101605.97;5079537;28;20143;-70
2021/12/31 01:02:29;;;;;;;17.63;9.10;;;;;;;12.17;95.86;101596.88;5097465;28;20050;-71
2021/12/31 01:04:56;;;;;;;;;;;;;;;12.09;95.70;101600.34;5097806;28;20082;-69
2021/12/31 01:07:24;;;;;;;19.08;9.27;;;;;;;11.95;96.12;101594.78;5096734;28;19927;-69
2021/12/31 01:09:52;;;;;;;24.05;9.93;;;;;;;11.98;95.92;101585.91;5096596;28;20067;-70
2021/12/31 01:12:20;;;;;;;18.38;9.40;;;;;;;11.64;97.34;101581.72;5097161;28;20048;-66
2021/12/31 01:17:41;;;;;;;16.67;9.27;;;;;;;11.77;97.42;101578.25;5096724;28;20051;-70
2021/12/31 01:20:10;;;;;;;21.17;9.75;;;;;;;11.56;98.88;101579.66;5096832;28;20147;-69
2021/12/31 01:22:37;;;;;;;22.17;9.45;;;;;;;11.78;97.91;101574.38;5094897;28;20048;-71
2021/12/31 01:25:06;;;;;;;16.92;8.93;;;;;;;11.57;97.79;101573.00;5096292;28;20064;-71
2021/12/31 01:27:35;;;;;;;20.45;8.98;;;;;;;11.66;97.42;101576.78;5096447;28;20060;-70
2021/12/31 01:30:08;;;;;;;15.27;8.35;;;;;;;11.62;97.78;101568.25;5096732;28;20052;-66
2021/12/31 01:32:35;;;;;;;19.52;9.05;;;;;;;11.64;98.29;101571.56;5095491;28;20051;-70
2021/12/31 01:35:03;;;;;;;17.00;8.45;;;;;;;11.57;97.85;101567.50;5096227;28;20067;-70
2021/12/31 01:37:31;;;;;;;17.58;8.73;;;;;;;11.64;97.62;101577.06;5096005;28;20059;-70
2021/12/31 01:39:58;;;;;;;14.93;8.20;;;;;;;11.71;97.41;101574.75;5095853;28;20056;-70
2021/12/31 01:42:31;;;;;;;16.70;8.43;;;;;;;11.78;96.61;101585.41;5095595;28;20048;-71
2021/12/31 01:45:10;;;;;;;18.52;8.43;;;;;;;11.82;96.26;101586.47;5096295;28;20071;-70
2021/12/31 01:50:28;;;;;;;21.95;9.73;;;;;;;12.02;95.06;101603.50;5094288;28;20059;-66
2021/12/31 01:52:56;;;;;;;19.50;8.98;;;;;;;12.07;94.09;101614.47;5096068;28;20040;-66
2021/12/31 01:55:27;;;;;;;18.42;8.35;;;;;;;11.92;94.10;101609.19;5094588;28;20047;-66
2021/12/31 01:57:54;;;;;;;18.90;9.35;;;;;;;12.07;93.79;101610.88;5095508;28;20055;-66
2021/12/31 02:00:22;;;;;;;16.73;9.15;;;;;;;12.15;93.07;101607.44;5094892;28;20472;-69
2021/12/31 02:02:50;;;;;;;21.40;9.20;;;;;;;12.02;92.71;101613.72;5095948;28;20655;-69
2021/12/31 02:05:21;;;;;;;19.20;9.52;;;;;;;12.10;92.75;101602.00;5094809;28;20051;-70
2021/12/31 02:07:48;;;;;;;17.00;8.60;;;;;;;12.02;92.66;101605.44;5095338;28;20052;-65
2021/12/31 02:10:16;;;;;;;19.75;9.55;;;;;;;12.06;92.44;101595.44;5095457;28;20051;-66
2021/12/31 02:12:46;;;;;;;17.60;8.52;;;;;;;11.99;92.55;101587.56;5094693;28;20056;-67
2021/12/31 02:15:16;;;;;;;17.73;9.30;;;;;;;11.77;92.78;101587.34;5078004;28;20045;-67
2021/12/31 02:17:44;;;;;;;20.63;9.27;;;;;;;11.68;94.17;101596.63;5095707;28;20052;-66
2021/12/31 02:20:12;;;;;;;18.52;10.75;;;;;;;11.76;93.96;101594.00;5095754;28;20055;-66
2021/12/31 02:22:44;;;;;;;17.42;9.65;;;;;;;11.71;93.81;101596.00;5095720;28;20048;-65
2021/12/31 02:25:11;;;;;;;17.52;9.43;;;;;;;11.86;93.36;101585.53;5094124;28;20051;-69
2021/12/31 02:27:39;;;;;;;16.02;10.07;;;;;;;11.62;92.60;101587.56;5095347;28;20059;-69
2021/12/31 02:30:09;;;;;;;21.40;11.63;;;;;;;11.68;93.94;101582.81;5077130;28;20541;-70
2021/12/31 02:32:37;;;;;;;21.52;11.32;;;;;;;11.79;92.97;101576.00;5095473;28;20147;-70
2021/12/31 02:35:07;;;;;;;21.27;11.85;;;;;;;11.78;92.93;101575.19;5094498;28;20055;-70
2021/12/31 02:37:34;;;;;;;18.70;11.93;;;;;;;11.86;92.11;101579.19;5093839;28;20051;-70
2021/12/31 02:40:08;;;;;;;22.15;12.38;;;;;;;11.57;93.29;101575.78;5092448;28;20056;-70
2021/12/31 02:42:36;;;;;;;17.88;12.05;;;;;;;11.62;92.91;101573.75;5075179;28;20492;-69
2021/12/31 02:45:06;;;;;;;19.90;12.32;;;;;;;11.34;93.99;101566.44;5074942;28;20043;-69
2021/12/31 02:47:34;;;;;;;20.88;12.63;;;;;;;11.38;93.78;101561.16;5074758;28;20056;-69
2021/12/31 02:50:04;;;;;;;18.33;13.00;;;;;;;11.29;94.07;101563.78;5075166;28;20463;-71
2021/12/31 02:52:31;;;;;;;20.30;11.95;;;;;;;11.33;93.90;101565.63;5074946;28;20052;-70
2021/12/31 02:55:00;;;;;;;22.05;12.73;;;;;;;11.38;93.63;101557.28;5083647;28;20063;-66
2021/12/31 02:57:27;;;;;;;20.05;11.43;;;;;;;11.38;93.52;101544.59;5093479;28;20147;-67
2021/12/31 02:59:55;;;;;;;19.02;11.38;;;;;;;11.45;93.13;101550.56;5094984;28;20391;-68
2021/12/31 03:02:24;;;;;;;18.30;11.40;;;;;;;11.41;92.65;101555.03;5094964;28;20048;-70
2021/12/31 03:04:53;;;;;;;21.67;11.07;;;;;;;11.37;92.65;101549.31;5095251;28;20051;-69
2021/12/31 03:07:21;;;;;;;15.98;11.32;;;;;;;11.33;92.36;101551.84;5092632;28;20418;-69
2021/12/31 03:09:50;;;;;;;17.00;10.75;;;;;;;11.33;92.21;101556.56;5093343;28;20044;-70
2021/12/31 03:12:17;;;;;;;17.90;10.20;;;;;;;11.50;91.36;101544.97;5092754;28;20048;-70
2021/12/31 03:14:46;;;;;;;15.40;10.25;;;;;;;11.40;91.26;101547.91;5094843;28;20055;-66
2021/12/31 03:17:14;;;;;;;15.88;9.63;;;;;;;11.37;91.22;101554.03;5094370;28;20044;-70
2021/12/31 03:19:43;;;;;;;17.00;9.18;;;;;;;11.32;91.47;101561.25;5076688;28;20056;-69
2021/12/31 03:22:10;;;;;;;16.55;8.98;;;;;;;11.42;90.89;101564.97;5094753;28;20470;-71
2021/12/31 03:24:38;;;;;;;16.20;9.45;;;;;;;11.33;91.15;101582.16;5094256;28;20048;-70
2021/12/31 03:27:05;;;;;;;15.57;8.80;;;;;;;11.55;90.34;101589.03;5094812;28;20114;-70
2021/12/31 03:29:32;;;;;;;14.23;8.40;;;;;;;11.77;89.42;101592.06;5094604;28;20048;-69
2021/12/31 03:32:00;;;;;;;11.00;7.80;;;;;;;11.44;89.15;101609.63;5093817;28;20060;-69
2021/12/31 03:34:27;;;;;;;12.75;7.18;;;;;;;11.67;89.37;101608.75;5093544;28;20040;-70
2021/12/31 03:36:55;;;;;;;15.52;8.05;;;;;;;11.74;88.20;101626.59;5082459;28;20059;-71
2021/12/31 03:39:22;;;;;;;13.00;7.30;;;;;;;11.76;88.09;101620.75;5092944;28;20052;-69
2021/12/31 03:41:50;;;;;;;10.63;7.80;;;;;;;11.85;88.11;101610.69;5094782;28;20048;-70
2021/12/31 03:44:17;;;;;;;12.50;6.88;;;;;;;12.02;87.22;101592.47;5093039;28;20052;-70
2021/12/31 03:46:44;;;;;;;12.75;7.32;;;;;;;11.96;86.61;101590.88;5094781;28;20394;-70
2021/12/31 03:49:12;;;;;;;14.43;7.78;;;;;;;11.78;86.48;101564.16;5094515;28;20052;-70
2021/12/31 03:51:39;;;;;;;13.77;7.05;;;;;;;11.62;87.26;101556.38;5094459;28;20052;-66
2021/12/31 03:54:06;;;;;;;14.30;7.03;;;;;;;11.40;88.10;101553.41;5094316;28;20488;-65
2021/12/31 03:56:34;;;;;;;11.55;6.30;;;;;;;11.58;88.07;101558.91;5072957;28;20078;-70
2021/12/31 03:59:01;;;;;;;12.88;6.85;;;;;;;11.46;87.96;101561.31;5074275;28;20097;-71
2021/12/31 04:01:28;;;;;;;10.88;6.00;;;;;;;11.62;87.75;101550.84;5074475;28;20048;-69
2021/12/31 04:03:56;;;;;;;12.07;6.43;;;;;;;11.66;86.98;101538.97;5106489;28;20052;-66
2021/12/31 04:06:24;;;;;;;11.13;6.05;;;;;;;11.43;87.07;101533.50;5096063;28;20078;-66
2021/12/31 04:08:51;;;;;;;11.15;5.75;;;;;;;11.35;87.68;101538.56;5097833;28;20050;-67
2021/12/31 04:11:19;;;;;;;11.68;5.78;;;;;;;11.50;87.31;101539.47;5097727;28;20052;-66
2021/12/31 04:13:46;;;;;;;8.85;5.57;;;;;;;11.35;88.07;101534.97;5097065;28;20048;-67
2021/12/31 04:16:13;;;;;;;12.02;5.60;;;;;;;11.36;87.61;101533.88;5098176;28;20052;-66
2021/12/31 04:18:41;;;;;;;10.48;5.55;;;;;;;11.36;88.12;101536.63;5096342;28;20075;-66
2021/12/31 04:21:08;;;;;;;8.35;5.05;;;;;;;11.39;87.52;101544.31;5096014;28;20062;-67
2021/12/31 04:23:48;;;;;;;12.35;4.82;;;;;;;11.38;87.88;101545.44;5097988;28;20055;-71
2021/12/31 04:26:16;;;;;;;12.40;5.32;;;;;;;11.64;86.07;101537.59;5096448;28;20043;-67
2021/12/31 04:28:43;;;;;;;11.05;4.97;;;;;;;11.34;87.36;101534.19;5097603;28;20048;-68
2021/12/31 04:31:11;;;;;;;14.20;4.85;;;;;;;11.23;87.53;101527.16;5113356;28;20431;-70
2021/12/31 04:33:38;;;;;;;8.90;4.80;;;;;;;11.34;87.71;101530.59;5096570;28;20048;-70
2021/12/31 04:36:06;;;;;;;11.20;5.47;;;;;;;11.34;87.36;101536.94;5097396;28;20040;-70
2021/12/31 04:38:33;;;;;;;9.57;5.10;;;;;;;11.27;87.52;101528.22;5096169;28;20048;-67
2021/12/31 04:41:00;;;;;;;8.30;4.68;;;;;;;11.27;87.38;101522.69;5102035;28;20495;-67
2021/12/31 04:43:27;;;;;;;8.63;4.85;;;;;;;11.06;87.86;101507.56;5087277;28;20051;-66
2021/12/31 04:45:55;;;;;;;8.77;4.70;;;;;;;11.01;88.33;101507.66;5097621;28;20044;-66
2021/12/31 04:48:22;;;;;;;11.68;5.35;;;;;;;10.88;89.02;101519.38;5097131;28;20055;-66
2021/12/31 04:50:50;;;;;;;9.45;4.43;;;;;;;10.95;89.38;101525.34;5097431;28;20062;-66
2021/12/31 04:53:17;;;;;;;8.82;4.32;;;;;;;11.15;88.96;101538.03;5095922;28;20056;-67
2021/12/31 04:55:45;;;;;;;9.32;4.68;;;;;;;11.16;88.24;101537.75;5096874;28;20044;-66
2021/12/31 04:58:12;;;;;;;9.65;4.45;;;;;;;11.29;87.31;101544.47;5096727;28;20052;-66
2021/12/31 05:00:39;;;;;;;8.07;4.18;;;;;;;11.39;87.42;101547.06;5097105;28;20486;-70
2021/12/31 05:03:08;;;;;;;10.25;4.35;;;;;;;11.33;87.17;101546.31;5097424;28;20053;-69
2021/12/31 05:05:36;;;;;;;8.52;4.75;;;;;;;11.52;86.47;101532.53;5096958;28;20052;-71
2021/12/31 05:08:04;;;;;;;7.65;4.15;;;;;;;11.51;85.77;101533.63;5096862;28;20048;-71
2021/12/31 05:10:32;;;;;;;9.02;4.40;;;;;;;11.76;85.28;101538.78;5096375;28;20048;-66
2021/12/31 05:13:01;;;;;;;9.23;4.57;;;;;;;11.63;84.86;101538.72;5096940;28;20052;-67
2021/12/31 05:15:33;;;;;;;8.05;4.30;;;;;;;11.44;85.99;101540.66;5095651;28;20044;-66
2021/12/31 05:18:00;;;;;;;9.02;4.22;;;;;;;11.37;86.25;101537.47;5096737;28;20055;-67
2021/12/31 05:20:28;;;;;;;8.32;4.65;;;;;;;11.23;87.20;101534.63;5095426;28;20060;-70
2021/12/31 05:22:57;;;;;;;7.82;4.05;;;;;;;11.47;86.14;101531.78;5096834;28;20056;-70
2021/12/31 05:25:24;;;;;;;8.60;4.20;;;;;;;11.41;85.91;101528.28;5096515;28;20044;-70
2021/12/31 05:27:52;;;;;;;7.82;3.95;;;;;;;11.13;87.27;101516.28;5094804;28;20052;-69
2021/12/31 05:30:19;;;;;;;9.18;4.32;;;;;;;11.13;87.19;101524.56;5096779;28;20078;-71
2021/12/31 05:32:47;;;;;;;7.45;4.05;;;;;;;11.01;87.94;101524.19;5096558;28;20055;-70
2021/12/31 05:35:14;;;;;;;8.27;4.40;;;;;;;10.94;88.53;101520.97;5096636;28;20044;-70
2021/12/31 05:37:42;;;;;;;8.15;4.22;;;;;;;11.03;88.56;101508.19;5096231;28;20060;-70
2021/12/31 05:40:10;;;;;;;8.65;4.25;;;;;;;11.17;87.75;101511.84;5095690;28;20063;-70
2021/12/31 05:42:37;;;;;;;9.90;4.20;;;;;;;11.08;88.02;101505.34;5096348;28;20119;-70
2021/12/31 05:45:05;;;;;;;8.15;4.13;;;;;;;11.20;87.91;101493.84;5095023;28;20407;-70
2021/12/31 05:47:32;;;;;;;11.52;4.03;;;;;;;11.32;87.03;101496.97;5096341;28;20532;-66
2021/12/31 05:49:59;;;;;;;9.35;4.38;;;;;;;11.35;86.55;101499.94;5094676;28;20059;-66
2021/12/31 05:52:27;;;;;;;7.63;3.90;;;;;;;11.13;87.27;101496.16;5094593;28;20074;-67
2021/12/31 05:54:54;;;;;;;8.57;3.67;;;;;;;11.19;87.46;101486.72;5095788;28;20044;-69
2021/12/31 05:57:21;;;;;;;14.90;5.15;;;;;;;11.25;87.07;101486.31;5110972;28;20059;-66
2021/12/31 05:59:48;;;;;;;10.50;4.07;;;;;;;11.33;86.49;101496.66;5094257;28;20060;-66
2021/12/31 06:02:16;;;;;;;7.78;4.50;;;;;;;11.10;87.12;101502.28;5096077;28;20044;-67
2021/12/31 06:04:43;;;;;;;9.13;3.88;;;;;;;11.28;86.94;101502.28;5095837;28;20040;-66
2021/12/31 06:07:10;;;;;;;10.57;4.38;;;;;;;11.27;86.84;101506.16;5095966;28;20550;-71
2021/12/31 06:09:37;;;;;;;13.82;3.95;;;;;;;11.35;86.28;101504.66;5095397;28;20051;-70
2021/12/31 06:12:05;;;;;;;19.98;4.53;;;;;;;11.35;85.69;101512.91;5095940;28;20375;-66
2021/12/31 06:14:33;;;;;;;9.82;4.63;;;;;;;10.99;86.51;101528.34;5095808;28;20048;-67
2021/12/31 06:17:06;;;;;;;8.63;5.20;;;;;;;11.16;86.90;101523.97;5095795;28;20142;-65
2021/12/31 06:19:35;;;;;;;12.85;5.30;;;;;;;11.18;86.65;101531.94;5095384;28;20060;-66
2021/12/31 06:22:02;;;;;;;10.75;4.15;;;;;;;11.19;86.54;101536.34;5095253;28;20043;-70
2021/12/31 06:24:29;;;;;;;8.50;4.25;;;;;;;11.20;86.67;101516.75;5093809;28;20040;-70
2021/12/31 06:26:57;;;;;;;8.93;4.22;;;;;;;11.14;87.26;101511.59;5095526;28;20056;-70
2021/12/31 06:29:24;;;;;;;9.82;4.65;;;;;;;10.90;87.38;101522.66;5094933;28;20407;-66
2021/12/31 06:31:51;;;;;;;8.45;4.25;;;;;;;10.91;87.77;101518.78;5095602;28;20048;-70
2021/12/31 06:34:18;;;;;;;11.80;4.20;;;;;;;11.02;87.99;101531.31;5095412;28;20048;-70
2021/12/31 06:36:45;;;;;;;8.20;4.45;;;;;;;11.09;87.19;101528.19;5094301;28;20059;-70
2021/12/31 06:39:13;;;;;;;10.57;4.50;;;;;;;11.09;87.15;101534.53;5092960;28;20523;-71
2021/12/31 06:41:40;;;;;;;8.45;4.00;;;;;;;11.11;86.87;101513.00;5095509;28;20566;-71
2021/12/31 06:44:07;;;;;;;13.80;5.60;;;;;;;11.02;87.22;101501.00;5095609;28;20055;-70
2021/12/31 06:46:35;;;;;;;10.43;5.05;;;;;;;10.98;87.31;101512.94;5095127;28;20047;-71
2021/12/31 06:49:02;;;;;;;8.27;4.80;;;;;;;11.00;87.32;101530.00;5094884;28;20052;-70
2021/12/31 06:51:29;;;;;;;9.32;4.63;;;;;;;11.06;87.09;101537.06;5093908;28;20055;-66
2021/12/31 06:53:57;;;;;;;7.93;4.22;;;;;;;11.26;86.71;101556.09;5094963;28;20048;-67
2021/12/31 06:56:24;;;;;;;8.25;4.57;;;;;;;11.35;85.69;101541.31;5075121;28;20041;-67
2021/12/31 06:58:51;;;;;;;11.60;4.90;;;;;;;11.45;85.35;101528.50;5074783;28;20055;-67
2021/12/31 07:01:18;;;;;;;9.35;4.47;;;;;;;11.46;84.53;101502.53;5073555;28;20040;-66
2021/12/31 07:03:46;;;;;;;8.60;4.35;;;;;;;11.11;85.13;101504.72;5106439;28;20059;-71
2021/12/31 07:06:14;;;;;;;12.45;5.32;;;;;;;11.05;85.94;101527.97;5094793;28;20055;-71
2021/12/31 07:08:41;;;;;;;11.35;5.00;;;;;;;11.03;86.51;101546.78;5094578;28;20052;-70
2021/12/31 07:11:08;;;;;;;9.05;4.45;;;;;;;10.83;87.29;101555.28;5093586;28;20056;-70
2021/12/31 07:13:35;;;;;;;8.05;4.45;;;;;;;11.07;87.07;101555.25;5094883;28;20063;-69
2021/12/31 07:16:03;;;;;;;12.52;5.75;;;;;;;11.08;86.28;101546.69;5092948;28;20044;-70
2021/12/31 07:18:30;;;;;;;10.18;5.00;;;;;;;11.31;86.18;101543.03;5094957;28;20059;-70
2021/12/31 07:20:58;;;;;;;10.38;5.38;;;;;;;11.26;85.32;101564.38;5092329;28;20056;-70
2021/12/31 07:23:25;;;;;;;11.93;4.50;;;;;;;11.04;86.34;101553.91;5094890;28;20048;-71
2021/12/31 07:25:52;;;;;;;8.95;4.85;;;;;;;11.24;86.06;101541.78;5075882;28;20055;-71
2021/12/31 07:28:20;;;;;;;14.48;5.30;;;;;;;11.28;85.89;101557.44;5095049;28;20055;-69
2021/12/31 07:30:48;;;;;;;11.70;5.10;;;;;;;11.11;86.19;101559.06;5094813;28;20059;-70
2021/12/31 07:33:21;;;;;;;8.75;4.50;;;;;;;11.17;86.33;101569.75;5078720;28;20057;-71
2021/12/31 07:35:49;;;;;;;9.55;4.20;;;;;;;11.37;85.57;101573.31;5074495;28;20068;-70
2021/12/31 07:40:48;;;;;;;10.10;4.15;;;;;;;11.59;84.32;101559.75;5093799;28;20615;-70
2021/12/31 07:43:15;;;;;;;7.43;4.30;;;;;;;11.71;84.22;101549.09;5101147;28;20048;-70
2021/12/31 07:45:43;;;;;;;9.85;3.83;;;;;;;11.82;83.43;101543.09;5105032;28;20056;-69
2021/12/31 07:48:11;;;;;;;9.68;5.10;;;;;;;11.69;83.34;101530.06;5098873;28;20055;-70
2021/12/31 07:50:38;;;;;;;11.05;4.63;;;;;;;11.48;83.98;101537.00;5085216;28;20047;-69
2021/12/31 07:53:06;;;;;;;8.75;4.25;;;;;;;11.37;84.75;101538.25;5110329;28;20379;-72
2021/12/31 07:55:34;;;;;;;11.32;4.00;;;;;;;11.41;85.23;101541.25;5097745;28;20056;-66
2021/12/31 07:58:02;;;;;;;11.00;3.70;;;;;;;11.56;85.02;101549.31;5095177;28;20052;-74
2021/12/31 08:00:29;;;;;;;10.25;4.22;;;;;;;11.62;84.34;101543.41;5098105;28;20056;-67
2021/12/31 08:02:57;;;;;;;9.82;4.30;;;;;;;11.75;83.77;101534.38;5098317;28;20048;-66
2021/12/31 08:05:26;;;;;;;8.52;4.18;;;;;;;11.75;83.50;101552.91;5098219;28;20058;-66
2021/12/31 08:07:53;;;;;;;8.52;4.30;;;;;;;11.52;84.23;101559.28;5075519;28;20049;-67
2021/12/31 08:10:21;;;;;;;10.32;4.50;;;;;;;11.50;84.21;101559.59;5090716;28;20047;-71
2021/12/31 08:13:08;;;;;;;11.48;4.28;;;;;;;11.56;84.27;101566.66;5083020;28;20055;-71
2021/12/31 08:15:35;;;;;;;8.60;3.97;;;;;;;11.50;84.60;101565.13;5098068;28;20052;-66
2021/12/31 08:18:03;;;;;;;9.68;4.00;;;;;;;11.57;84.11;101573.00;5096763;28;20060;-68
2021/12/31 08:20:30;;;;;;;10.48;5.10;;;;;;;11.64;83.63;101584.50;5096957;28;20047;-69
2021/12/31 08:23:06;;;;;;;10.00;4.32;;;;;;;11.65;83.87;101599.94;5080686;28;20043;-67
2021/12/31 08:25:33;;;;;;;8.90;4.25;;;;;;;11.58;84.01;101602.22;5092066;28;20053;-68
2021/12/31 08:28:00;;;;;;;8.52;4.18;;;;;;;11.62;83.99;101598.59;5097656;28;20048;-67
2021/12/31 08:30:28;;;;;;;8.65;3.83;;;;;;;11.63;84.00;101596.66;5095656;28;20075;-68
2021/12/31 08:32:55;;;;;;;7.53;4.10;;;;;;;11.64;83.65;101579.84;5096518;28;20052;-69
2021/12/31 08:35:24;;;;;;;8.95;4.43;;;;;;;11.73;83.35;101574.44;5097463;28;20059;-69
2021/12/31 08:37:51;;;;;;;11.95;4.45;;;;;;;11.86;83.08;101571.75;5097134;28;20040;-68
2021/12/31 08:40:20;;;;;;;10.30;4.22;;;;;;;11.85;83.12;101583.09;5096647;28;20055;-68
2021/12/31 08:42:47;;;;;;;11.23;4.18;;;;;;;11.92;82.73;101584.34;5096659;28;20052;-67
2021/12/31 08:45:18;;;;;;;10.05;4.32;;;;;;;11.90;82.58;101577.47;5097212;28;20155;-68
2021/12/31 08:47:46;;;;;;;11.10;4.35;;;;;;;11.92;82.52;101589.88;5096932;28;20052;-68
2021/12/31 08:50:13;;;;;;;8.23;4.25;;;;;;;11.62;82.86;101592.25;5084374;28;20052;-66
2021/12/31 08:52:41;;;;;;;7.53;3.85;;;;;;;11.82;82.96;101589.22;5086296;28;20054;-68
2021/12/31 08:55:09;;;;;;;9.45;4.30;;;;;;;11.65;83.05;101586.97;5089608;28;20407;-68
2021/12/31 08:57:36;;;;;;;8.52;4.10;;;;;;;11.73;83.26;101574.44;5094812;28;20086;-67
2021/12/31 09:00:05;;;;;;;8.02;4.50;;;;;;;11.81;83.30;101591.16;5097110;28;20052;-66
2021/12/31 09:02:35;;;;;;;9.68;4.38;;;;;;;11.77;83.08;101597.59;5094569;28;20058;-69
2021/12/31 09:05:03;;;;;;;9.45;4.20;;;;;;;12.09;82.34;101587.38;5095959;28;20131;-67
2021/12/31 09:07:30;;;;;;;10.15;3.92;;;;;;;12.14;81.29;101581.75;5087111;28;20040;-66
2021/12/31 09:09:57;;;;;;;8.55;3.88;;;;;;;12.22;81.27;101589.34;5088860;28;20063;-68
2021/12/31 09:12:25;;;;;;;7.75;3.83;;;;;;;12.37;80.91;101615.88;5096490;28;20051;-66
2021/12/31 09:14:52;;;;;;;8.73;3.88;;;;;;;12.57;79.12;101614.69;5097240;28;20052;-67
2021/12/31 09:17:21;;;;;;;9.43;5.05;;;;;;;12.77;78.65;101619.81;5096831;28;20047;-68
2021/12/31 09:19:49;;;;;;;18.23;10.52;;;;;;;12.23;80.40;101626.06;5090979;28;20036;-69
2021/12/31 09:22:17;;;;;;;21.73;12.43;;;;;;;12.14;80.92;101612.13;5096219;28;20059;-70
2021/12/31 09:24:45;;;;;;;11.18;5.95;;;;;;;12.23;81.11;101587.41;5096489;28;20052;-69
2021/12/31 09:27:12;;;;;;;9.27;4.00;;;;;;;12.30;80.71;101608.00;5091355;28;20045;-70
2021/12/31 09:29:40;;;;;;;6.85;3.60;;;;;;;12.50;80.88;101615.06;5094684;28;20435;-68
2021/12/31 09:32:07;;;;;;;9.38;3.70;;;;;;;12.54;79.64;101621.63;5094565;28;20052;-67
2021/12/31 09:34:35;;;;;;;8.50;3.70;;;;;;;12.37;79.74;101610.34;5096486;28;20418;-69
2021/12/31 09:37:02;;;;;;;8.45;4.10;;;;;;;12.34;80.54;101619.25;5096279;28;20051;-69
2021/12/31 09:39:29;;;;;;;10.23;3.83;;;;;;;12.56;79.23;101597.28;5096025;28;20040;-68
2021/12/31 09:41:56;;;;;;;9.65;4.18;;;;;;;12.45;79.14;101604.94;5093532;28;20059;-70
2021/12/31 09:44:24;;;;;;;8.77;4.18;;;;;;;12.41;79.93;101623.25;5076343;28;20044;-70
2021/12/31 09:46:51;;;;;;;10.63;4.00;;;;;;;12.46;80.04;101634.19;5092190;28;20491;-69
2021/12/31 09:49:19;;;;;;;9.95;4.13;;;;;;;12.46;79.96;101645.25;5094303;28;20055;-68
2021/12/31 09:51:46;;;;;;;7.85;4.47;;;;;;;12.54;80.23;101648.44;5095031;28;20052;-69
2021/12/31 09:54:14;;;;;;;20.83;11.10;;;;;;;12.71;79.57;101645.94;5094711;28;20056;-69
2021/12/31 09:56:41;;;;;;;11.30;5.60;;;;;;;12.69;78.89;101665.59;5094315;28;20075;-68
2021/12/31 09:59:09;;;;;;;10.55;4.25;;;;;;;12.42;80.30;101677.41;5095454;28;20052;-68
2021/12/31 10:01:47;;;;;;;7.07;4.10;;;;;;;12.40;80.10;101676.06;5095401;28;20056;-68
2021/12/31 10:04:15;;;;;;;6.57;3.60;;;;;;;12.12;81.41;101675.13;5094469;28;20266;-69
2021/12/31 10:07:10;;;;;;;8.55;4.05;;;;;;;12.58;80.21;101680.72;5094040;28;20055;-68
2021/12/31 10:09:40;;;;;;;8.48;3.95;;;;;;;12.90;78.98;101666.03;5094041;28;20059;-69
2021/12/31 10:12:12;;;;;;;8.30;3.80;;;;;;;12.91;78.40;101667.66;5094503;28;20048;-68
2021/12/31 10:14:40;;;;;;;8.10;3.53;;;;;;;12.84;78.15;101670.84;5095983;28;20055;-69
2021/12/31 10:17:09;;;;;;;7.47;3.60;;;;;;;12.79;78.66;101662.63;5093960;28;20047;-67
2021/12/31 10:19:54;;;;;;;7.20;3.67;;;;;;;13.04;77.90;101684.28;5094186;28;20078;-69
2021/12/31 10:22:21;;;;;;;9.25;3.80;;;;;;;12.90;77.93;101677.88;5094213;28;20061;-67
2021/12/31 10:24:51;;;;;;;6.70;3.55;;;;;;;13.10;77.64;101691.38;5095333;28;20052;-68
2021/12/31 10:27:20;;;;;;;7.25;3.70;;;;;;;13.15;76.96;101693.22;5093540;28;20056;-68
2021/12/31 10:29:54;;;;;;;7.68;3.90;;;;;;;13.05;77.13;101694.25;5095591;28;20048;-68
2021/12/31 10:32:23;;;;;;;6.90;3.53;;;;;;;13.05;77.64;101694.25;5095116;28;20510;-68
2021/12/31 10:34:51;;;;;;;9.63;3.70;;;;;;;13.34;77.33;101694.75;5094106;28;20043;-69
2021/12/31 10:37:24;;;;;;;6.50;3.45;;;;;;;13.46;76.60;101708.06;5093440;28;20294;-71
2021/12/31 10:40:00;;;;;;;11.63;6.03;;;;;;;13.57;76.38;101710.31;5095332;28;20491;-69
2021/12/31 10:42:40;;;;;;;8.23;3.75;;;;;;;13.49;76.11;101726.84;5095098;28;20063;-68
2021/12/31 10:45:09;;;;;;;8.77;3.53;;;;;;;13.28;77.19;101734.75;5095174;28;20059;-68
2021/12/31 10:47:39;;;;;;;8.35;3.42;;;;;;;12.87;78.83;101769.75;5095095;28;20653;-69
2021/12/31 10:50:11;;;;;;;8.50;3.08;;;;;;;12.77;80.05;101758.88;5093742;28;20411;-68
2021/12/31 10:53:11;;;;;;;13.55;5.07;;;;;;;12.80;80.01;101751.91;5074506;28;20048;-68
2021/12/31 10:55:41;;;;;;;6.38;3.17;;;;;;;12.91;79.66;101747.84;5073550;28;20056;-67
2021/12/31 10:58:12;;;;;;;9.63;3.20;;;;;;;12.92;80.08;101757.81;5073845;28;20056;-69
2021/12/31 11:00:42;;;;;;;17.95;4.30;;;;;;;13.47;78.34;101754.84;5074772;28;20044;-68
2021/12/31 11:03:10;;;;;;;8.38;3.22;;;;;;;13.16;78.11;101748.22;5084169;28;20056;-68
2021/12/31 11:05:37;;;;;;;10.13;4.60;;;;;;;13.20;78.81;101746.50;5094676;28;20052;-69
2021/12/31 11:08:07;;;;;;;6.15;3.20;;;;;;;13.60;76.94;101747.63;5092983;28;20048;-69
2021/12/31 11:10:39;;;;;;;9.88;5.18;;;;;;;13.49;77.68;101749.78;5092397;28;20051;-69
2021/12/31 11:13:16;;;;;;;8.65;4.40;;;;;;;13.23;78.49;101753.38;5091999;28;20044;-69
2021/12/31 11:15:46;;;;;;;8.63;3.50;;;;;;;13.42;78.39;101752.13;5077499;28;20052;-70
2021/12/31 11:18:18;;;;;;;5.90;2.80;;;;;;;13.38;78.50;101737.31;5097880;28;21754;-70
2021/12/31 11:20:47;;;;;;;6.85;3.15;;;;;;;13.46;77.94;101752.34;5097047;28;20293;-70
2021/12/31 11:23:14;;;;;;;6.80;3.17;;;;;;;13.57;77.64;101754.63;5097896;28;20047;-69
2021/12/31 11:25:52;;;;;;;10.07;3.30;;;;;;;14.30;74.51;101753.56;5084766;28;20064;-69
2021/12/31 11:28:27;;;;;;;5.95;3.25;;;;;;;14.06;75.37;101750.22;5092310;28;20136;-69
2021/12/31 11:30:56;;;;;;;12.38;4.57;;;;;;;14.25;75.00;101737.03;5098720;28;20055;-68
2021/12/31 11:33:27;;;;;;;9.03;4.60;;;;;;;13.99;75.52;101736.00;5084275;28;20047;-68
2021/12/31 11:35:54;;;;;;;9.13;3.65;;;;;;;14.17;75.40;101741.41;5109374;28;20316;-69